createdAt,value
2023-03-22T00:00:15.454Z,37.37
2023-03-22T00:02:42.607Z,34.83
2023-03-22T00:05:10.111Z,37.77
2023-03-22T00:07:37.765Z,38.33
2023-03-22T00:10:05.786Z,32.90
2023-03-22T00:12:32.929Z,36.53
2023-03-22T00:15:00.161Z,35.03
2023-03-22T00:17:27.313Z,37.17
2023-03-22T00:19:54.679Z,44.17
2023-03-22T00:22:22.140Z,38.00
2023-03-22T00:24:49.249Z,37.23
2023-03-22T00:27:16.614Z,40.53
2023-03-22T00:29:43.713Z,42.60
2023-03-22T00:32:11.278Z,45.63
2023-03-22T00:34:38.407Z,44.77
2023-03-22T00:37:05.638Z,54.47
2023-03-22T00:39:32.925Z,64.13
2023-03-22T00:42:00.226Z,63.97
2023-03-22T00:44:27.399Z,61.60
2023-03-22T00:46:54.587Z,109.73
2023-03-22T00:49:21.895Z,90.63
2023-03-22T00:51:49.026Z,84.93
2023-03-22T00:54:17.340Z,82.53
2023-03-22T00:56:49.851Z,83.77
2023-03-22T00:59:17.453Z,53.20
2023-03-22T01:01:44.640Z,41.23
2023-03-22T01:04:17.924Z,60.63
2023-03-22T01:06:47.130Z,43.40
2023-03-22T01:09:15.105Z,34.70
2023-03-22T01:11:43.396Z,28.17
2023-03-22T01:14:13.773Z,27.70
2023-03-22T01:16:41.124Z,41.00
2023-03-22T01:19:08.780Z,24.77
2023-03-22T01:21:36.061Z,28.87
2023-03-22T01:24:03.231Z,38.17
2023-03-22T01:26:30.488Z,83.60
2023-03-22T01:28:57.680Z,64.67
2023-03-22T01:31:24.873Z,117.30
2023-03-22T01:33:51.995Z,140.77
2023-03-22T01:36:19.125Z,121.77
2023-03-22T01:38:46.256Z,289.47
2023-03-22T01:41:13.524Z,428.73
2023-03-22T01:43:40.633Z,368.57
2023-03-22T01:46:07.875Z,277.53
2023-03-22T01:48:38.062Z,354.43
2023-03-22T01:51:08.771Z,414.73
2023-03-22T01:53:37.944Z,395.43
2023-03-22T01:56:05.318Z,631.57
2023-03-22T01:58:33.819Z,752.43
2023-03-22T02:01:01.159Z,491.23
2023-03-22T02:03:37.549Z,410.17
2023-03-22T02:06:04.690Z,543.97
2023-03-22T02:08:33.041Z,659.63
2023-03-22T02:11:01.033Z,377.40
2023-03-22T02:13:38.827Z,519.77
2023-03-22T02:16:10.544Z,437.10
2023-03-22T02:18:49.974Z,641.77
2023-03-22T02:21:41.609Z,542.70
2023-03-22T02:24:27.532Z,428.00
2023-03-22T02:27:06.407Z,392.87
2023-03-22T02:30:02.643Z,446.13
2023-03-22T02:32:32.566Z,566.83
2023-03-22T02:35:21.956Z,595.90
2023-03-22T02:38:08.060Z,472.80
2023-03-22T02:40:49.778Z,663.23
2023-03-22T02:43:23.558Z,473.63
2023-03-22T02:45:53.524Z,279.03
2023-03-22T02:48:33.314Z,384.63
2023-03-22T02:51:02.838Z,321.47
2023-03-22T02:53:40.797Z,375.17
2023-03-22T02:56:22.575Z,134.83
2023-03-22T02:58:53.233Z,172.67
2023-03-22T03:01:25.977Z,315.30
2023-03-22T03:03:55.370Z,197.07
2023-03-22T03:06:25.590Z,117.73
2023-03-22T03:08:53.834Z,158.03
2023-03-22T03:11:21.508Z,173.83
2023-03-22T03:13:49.227Z,63.70
2023-03-22T03:16:17.517Z,77.80
2023-03-22T03:18:48.395Z,92.43
2023-03-22T03:21:35.059Z,86.43
2023-03-22T03:24:21.223Z,63.17
2023-03-22T03:26:48.401Z,64.17
2023-03-22T03:29:35.776Z,58.23
2023-03-22T03:32:25.555Z,54.43
2023-03-22T03:34:59.414Z,57.40
2023-03-22T03:37:41.357Z,62.03
2023-03-22T03:40:13.807Z,56.97
2023-03-22T03:42:44.220Z,57.97
2023-03-22T03:45:11.667Z,49.37
2023-03-22T03:47:38.835Z,53.03
2023-03-22T03:50:06.464Z,61.27
2023-03-22T03:52:33.579Z,62.23
2023-03-22T03:55:00.729Z,52.73
2023-03-22T03:57:27.847Z,53.07
2023-03-22T03:59:55.240Z,54.87
2023-03-22T04:02:22.426Z,51.10
2023-03-22T04:04:49.707Z,47.97
2023-03-22T04:07:16.861Z,48.80
2023-03-22T04:09:43.992Z,48.77
2023-03-22T04:12:11.184Z,51.13
2023-03-22T04:14:38.359Z,50.00
2023-03-22T04:17:05.667Z,45.23
2023-03-22T04:19:33.034Z,43.20
2023-03-22T04:22:00.360Z,46.90
2023-03-22T04:24:27.591Z,51.97
2023-03-22T04:26:55.099Z,50.27
2023-03-22T04:29:22.976Z,41.73
2023-03-22T04:31:50.261Z,49.27
2023-03-22T04:34:17.552Z,47.77
2023-03-22T04:36:45.230Z,58.43
2023-03-22T04:39:12.730Z,46.13
2023-03-22T04:41:39.925Z,48.67
2023-03-22T04:44:07.742Z,44.60
2023-03-22T04:46:36.130Z,45.13
2023-03-22T04:49:03.837Z,44.70
2023-03-22T04:51:32.062Z,44.97
2023-03-22T04:54:00.421Z,39.67
2023-03-22T04:56:27.549Z,43.63
2023-03-22T04:58:54.713Z,47.23
2023-03-22T05:01:21.949Z,46.97
2023-03-22T05:03:49.154Z,53.37
2023-03-22T05:06:16.433Z,65.83
2023-03-22T05:08:44.122Z,128.07
2023-03-22T05:11:16.364Z,122.30
2023-03-22T05:13:43.819Z,225.63
2023-03-22T05:16:11.407Z,141.27
2023-03-22T05:18:42.402Z,277.77
2023-03-22T05:21:16.531Z,296.20
2023-03-22T05:23:44.469Z,133.80
2023-03-22T05:26:16.183Z,151.73
2023-03-22T05:28:44.693Z,160.60
2023-03-22T05:31:14.509Z,167.73
2023-03-22T05:33:41.844Z,209.20
2023-03-22T05:36:09.429Z,238.53
2023-03-22T05:38:36.549Z,339.27
2023-03-22T05:41:03.983Z,238.93
2023-03-22T05:43:32.752Z,420.80
2023-03-22T05:45:59.917Z,389.37
2023-03-22T05:48:27.065Z,175.27
2023-03-22T05:50:54.173Z,427.77
2023-03-22T05:53:21.325Z,334.03
2023-03-22T05:55:48.450Z,438.43
2023-03-22T05:58:18.970Z,175.13
2023-03-22T06:00:49.933Z,107.13
2023-03-22T06:03:18.273Z,336.70
2023-03-22T06:05:46.567Z,215.20
2023-03-22T06:08:13.731Z,105.53
2023-03-22T06:10:41.114Z,146.70
2023-03-22T06:13:08.577Z,101.53
2023-03-22T06:15:35.878Z,184.57
2023-03-22T06:18:03.164Z,77.80
2023-03-22T06:20:30.330Z,79.83
2023-03-22T06:22:57.519Z,86.07
2023-03-22T06:25:24.809Z,58.87
2023-03-22T06:27:52.001Z,62.37
2023-03-22T06:30:20.492Z,59.37
2023-03-22T06:32:47.594Z,42.70
2023-03-22T06:35:15.537Z,58.27
2023-03-22T06:37:42.769Z,52.57
2023-03-22T06:40:10.384Z,52.73
2023-03-22T06:42:37.658Z,43.03
2023-03-22T06:45:04.972Z,49.37
2023-03-22T06:47:32.136Z,48.60
2023-03-22T06:49:59.330Z,46.83
2023-03-22T06:52:26.512Z,49.03
2023-03-22T06:54:53.643Z,50.50
2023-03-22T06:57:21.057Z,53.97
2023-03-22T06:59:48.299Z,56.63
2023-03-22T07:02:15.451Z,60.30
2023-03-22T07:04:42.691Z,65.93
2023-03-22T07:07:09.915Z,69.73
2023-03-22T07:09:37.113Z,62.73
2023-03-22T07:12:05.254Z,62.57
2023-03-22T07:14:32.604Z,61.13
2023-03-22T07:16:59.950Z,70.63
2023-03-22T07:19:27.673Z,64.40
2023-03-22T07:21:54.849Z,69.30
2023-03-22T07:24:22.081Z,63.13
2023-03-22T07:26:49.191Z,67.13
2023-03-22T07:29:16.340Z,65.53
2023-03-22T07:31:43.758Z,72.57
2023-03-22T07:34:11.089Z,60.70
2023-03-22T07:36:38.283Z,76.67
2023-03-22T07:39:05.965Z,72.47
2023-03-22T07:41:33.223Z,73.60
2023-03-22T07:44:15.216Z,76.60
2023-03-22T07:46:44.867Z,86.43
2023-03-22T07:49:12.000Z,84.10
2023-03-22T07:51:39.406Z,76.97
2023-03-22T07:54:07.843Z,97.90
2023-03-22T07:56:35.111Z,107.87
2023-03-22T07:59:02.408Z,87.20
2023-03-22T08:01:29.682Z,126.87
2023-03-22T08:03:56.841Z,112.07
2023-03-22T08:06:23.968Z,116.03
2023-03-22T08:08:51.393Z,99.40
2023-03-22T08:11:18.505Z,97.77
2023-03-22T08:13:45.966Z,75.73
2023-03-22T08:16:13.131Z,76.13
2023-03-22T08:18:40.629Z,70.60
2023-03-22T08:21:07.962Z,89.37
2023-03-22T08:23:41.838Z,96.30
2023-03-22T08:26:09.950Z,117.13
2023-03-22T08:28:37.590Z,109.57
2023-03-22T08:31:12.273Z,108.33
2023-03-22T08:33:40.993Z,110.27
2023-03-22T08:36:09.099Z,217.57
2023-03-22T08:38:36.609Z,125.23
2023-03-22T08:41:03.811Z,180.73
2023-03-22T08:43:31.000Z,120.33
2023-03-22T08:45:58.407Z,150.37
2023-03-22T08:48:28.990Z,164.70
2023-03-22T08:50:56.128Z,148.03
2023-03-22T08:53:23.342Z,285.07
2023-03-22T08:55:50.905Z,111.70
2023-03-22T08:58:20.008Z,126.60
2023-03-22T09:00:49.716Z,110.47
2023-03-22T09:03:17.560Z,104.87
2023-03-22T09:05:44.922Z,163.33
2023-03-22T09:08:18.574Z,136.40
2023-03-22T09:10:52.722Z,163.50
2023-03-22T09:13:20.350Z,112.60
2023-03-22T09:15:48.250Z,218.53
2023-03-22T09:18:16.198Z,104.50
2023-03-22T09:20:44.658Z,112.73
2023-03-22T09:23:11.996Z,98.20
2023-03-22T09:25:39.506Z,91.43
2023-03-22T09:28:06.923Z,82.23
2023-03-22T09:30:34.105Z,94.53
2023-03-22T09:33:01.468Z,121.67
2023-03-22T09:35:28.739Z,109.63
2023-03-22T09:37:56.178Z,101.13
2023-03-22T09:40:27.808Z,105.50
2023-03-22T09:42:56.617Z,93.50
2023-03-22T09:45:30.773Z,77.33
2023-03-22T09:47:58.956Z,80.77
2023-03-22T09:50:27.569Z,54.30
2023-03-22T09:52:54.846Z,69.60
2023-03-22T09:55:30.384Z,60.33
2023-03-22T09:58:08.216Z,54.43
2023-03-22T10:00:41.228Z,52.23
2023-03-22T10:03:22.486Z,62.47
2023-03-22T10:05:54.079Z,59.13
2023-03-22T10:08:31.547Z,70.37
2023-03-22T10:10:59.264Z,73.07
2023-03-22T10:13:26.430Z,70.37
2023-03-22T10:15:59.055Z,86.20
2023-03-22T10:18:27.597Z,84.97
2023-03-22T10:20:55.438Z,73.43
2023-03-22T10:23:28.730Z,57.70
2023-03-22T10:25:57.182Z,65.80
2023-03-22T10:28:35.897Z,66.20
2023-03-22T10:31:05.688Z,70.17
2023-03-22T10:33:56.385Z,64.40
2023-03-22T10:36:24.664Z,66.43
2023-03-22T10:38:56.930Z,62.60
2023-03-22T10:41:25.866Z,48.77
2023-03-22T10:43:55.610Z,66.13
2023-03-22T10:46:25.265Z,57.80
2023-03-22T10:48:53.894Z,61.63
2023-03-22T10:51:27.077Z,57.13
2023-03-22T10:53:55.456Z,66.03
2023-03-22T10:56:22.968Z,58.77
2023-03-22T10:58:50.921Z,57.97
2023-03-22T11:01:29.025Z,48.87
2023-03-22T11:03:58.274Z,61.27
2023-03-22T11:06:27.380Z,52.60
2023-03-22T11:08:57.471Z,56.53
2023-03-22T11:11:24.623Z,62.47
2023-03-22T11:13:53.905Z,52.50
2023-03-22T11:16:21.165Z,57.10
2023-03-22T11:18:48.451Z,49.17
2023-03-22T11:21:17.369Z,52.53
2023-03-22T11:23:49.238Z,50.07
2023-03-22T11:29:07.803Z,35.00
2023-03-22T11:31:56.111Z,35.70
2023-03-22T11:34:24.357Z,33.43
2023-03-22T11:36:57.144Z,36.83
2023-03-22T11:39:28.745Z,35.07
2023-03-22T11:42:01.529Z,37.10
2023-03-22T11:44:33.034Z,37.27
2023-03-22T11:47:01.451Z,33.17
2023-03-22T11:49:35.489Z,38.73
2023-03-22T11:52:08.489Z,32.60
2023-03-22T11:54:36.486Z,33.50
2023-03-22T11:57:05.796Z,35.80
2023-03-22T11:59:40.196Z,32.20
2023-03-22T12:02:15.596Z,37.43
2023-03-22T12:04:44.686Z,33.33
2023-03-22T12:07:15.525Z,39.63
2023-03-22T12:09:42.717Z,27.73
2023-03-22T12:12:22.988Z,27.67
2023-03-22T12:15:25.613Z,36.07
2023-03-22T12:18:00.198Z,35.20
2023-03-22T12:20:45.748Z,30.17
2023-03-22T12:23:15.493Z,31.07
2023-03-22T12:25:45.316Z,30.57
2023-03-22T12:28:16.778Z,34.17
2023-03-22T12:30:48.657Z,29.60
2023-03-22T12:33:30.874Z,33.67
2023-03-22T12:35:59.420Z,32.87
2023-03-22T12:38:29.703Z,26.47
2023-03-22T12:40:59.067Z,30.17
2023-03-22T12:43:39.981Z,27.27
2023-03-22T12:46:07.863Z,29.83
2023-03-22T12:48:46.696Z,30.07
2023-03-22T12:51:14.472Z,30.33
2023-03-22T12:53:55.578Z,25.70
2023-03-22T12:56:24.697Z,28.13
2023-03-22T12:58:53.258Z,28.23
2023-03-22T13:01:24.000Z,28.63
2023-03-22T13:03:53.600Z,23.87
2023-03-22T13:06:39.454Z,31.23
2023-03-22T13:09:25.427Z,29.23
2023-03-22T13:12:11.396Z,26.00
2023-03-22T13:14:51.267Z,29.53
2023-03-22T13:17:24.681Z,26.70
2023-03-22T13:20:06.295Z,27.10
2023-03-22T13:22:41.533Z,22.03
2023-03-22T13:25:09.849Z,24.43
2023-03-22T13:27:37.868Z,27.13
2023-03-22T13:30:15.227Z,25.93
2023-03-22T13:32:53.210Z,23.10
2023-03-22T13:35:23.569Z,21.90
2023-03-22T13:37:51.843Z,24.20
2023-03-22T13:40:32.631Z,22.03
2023-03-22T13:43:10.885Z,19.87
2023-03-22T13:45:44.883Z,18.90
2023-03-22T13:48:29.493Z,22.03
2023-03-22T13:50:58.412Z,19.30
2023-03-22T13:53:33.801Z,19.97
2023-03-22T13:56:04.687Z,18.80
2023-03-22T13:58:36.015Z,22.87
2023-03-22T14:01:08.987Z,22.07
2023-03-22T14:03:38.996Z,19.37
2023-03-22T14:06:15.856Z,23.53
2023-03-22T14:08:44.317Z,25.27
2023-03-22T14:11:20.240Z,20.33
2023-03-22T14:13:52.658Z,22.00
2023-03-22T14:16:32.196Z,19.40
2023-03-22T14:19:00.052Z,23.27
2023-03-22T14:21:36.002Z,20.97
